Darstellungsparameter: Aktuell verwendete Einstellungen:
Skalierung der Graphiken ... ?
xyx+y,   Skalierungsfaktor:      Skalierung: Modus: x, Faktor: 1
Darstellungszeitraum ... ?
Vom - - bis: - -   Zeitraum: 22.03.2011 - 28.03.2011
Min/Max/Avg-Anzeige ... ?
Zeige MMA aktuell
Zeige MMA Monat
Zeige MMA alles
Zeige --A aktuell
Zeige --A Monat
Zeige --A alles
Keine MMA-Anzeige
MMA:
Average (ber die Originaldaten)
MMA-Basis: 23.02.2003 - 29.09.2020
Quicknavigation für Darstellung... ?
Tage:      1T, 2T, 3T, 5T -1T -2T -3T -5T +1T +2T +3T +5T
Wochen: 1W, 2W, 3W -1W -2W -3W +1W +2W +3W
Monate: 1M, 3M, 6M -1M -3M -6M +1M +3M +6M
Jahre:    1J, 3J, 5J, 10J -1J -3J -5J -10J +1J +3J +5J +10J
Nutze für die Darstellung ... ?
Originaldaten oder Mittelwerte auf ...
Stundenbasis Tagesbasis Wochenbasis
Monatsbasis Jahresbasis      Datenbasis: Original-Daten
Darstellen als:
Statistik (Auto) Statistik J:M      Darstellung:
Zur Graphik,    zurück zur Übersicht aller Sensoren.
 
Tabellarische Datenbersicht: ?
 
Sensor: Nr:Datum:Temp:Abs-Feuchte:Windchill:Wind:
Aussen-T/F 1 22-03-2011 00:10:02 0.2 C 3.83 g/m*3 0.2 C 0 km/h
2 22-03-2011 00:22:02 0.1 C 3.81 g/m*3 0.1 C 0 km/h
3 22-03-2011 00:34:02 -0.2 C 3.78 g/m*3 -0.2 C 0 km/h
4 22-03-2011 00:46:02 -0.5 C 3.7 g/m*3 -0.5 C 0 km/h
5 22-03-2011 00:58:02 -0.4 C 3.77 g/m*3 -0.4 C 0 km/h
6 22-03-2011 01:10:02 -0.5 C 3.79 g/m*3 -0.5 C 0 km/h
7 22-03-2011 01:22:02 -0.6 C 3.81 g/m*3 -0.6 C 0 km/h
8 22-03-2011 01:34:02 -1 C 3.71 g/m*3 -1 C 0 km/h
9 22-03-2011 01:46:03 -1.1 C 3.73 g/m*3 -1.1 C 0 km/h
10 22-03-2011 01:58:03 -1.1 C 3.73 g/m*3 -1.1 C 0 km/h
11 22-03-2011 02:10:03 -1.1 C 3.77 g/m*3 -1.1 C 0 km/h
12 22-03-2011 02:22:03 -1.3 C 3.72 g/m*3 -1.3 C 0 km/h
13 22-03-2011 02:34:03 -1.5 C 3.67 g/m*3 -1.5 C 0 km/h
14 22-03-2011 02:46:03 -1.4 C 3.74 g/m*3 -1.4 C 0 km/h
15 22-03-2011 02:58:03 -1.5 C 3.71 g/m*3 -1.5 C 0 km/h
16 22-03-2011 03:10:03 -1.4 C 3.74 g/m*3 -1.4 C 0 km/h
17 22-03-2011 03:22:03 -1.7 C 3.66 g/m*3 -1.7 C 0 km/h
18 22-03-2011 03:34:03 -2 C 3.58 g/m*3 -2 C 0 km/h
19 22-03-2011 03:46:03 -2.1 C 3.56 g/m*3 -2.1 C 0 km/h
20 22-03-2011 03:58:03 -2.1 C 3.56 g/m*3 -2.1 C 0 km/h
21 22-03-2011 04:10:03 -2.1 C 3.56 g/m*3 -2.1 C 0 km/h
22 22-03-2011 04:22:03 -2.1 C 3.56 g/m*3 -2.1 C 0 km/h
23 22-03-2011 04:34:03 -2.3 C 3.55 g/m*3 -2.3 C 0 km/h
24 22-03-2011 04:46:03 -2.4 C 3.52 g/m*3 -2.4 C 0 km/h
25 22-03-2011 04:58:03 -2.3 C 3.55 g/m*3 -2.3 C 0 km/h
Sensor: Nr:Datum:Temp:Abs-Feuchte:Windchill:Wind:
Aussen-T/F 26 22-03-2011 05:10:03 -2.4 C 3.57 g/m*3 -2.4 C 0 km/h
27 22-03-2011 05:22:03 -2.4 C 3.57 g/m*3 -2.4 C 0 km/h
28 22-03-2011 05:34:03 -2.7 C 3.49 g/m*3 -2.7 C 0 km/h
29 22-03-2011 05:46:04 -2.7 C 3.49 g/m*3 -2.7 C 0 km/h
30 22-03-2011 05:58:04 -2.6 C 3.52 g/m*3 -2.6 C 0 km/h
31 22-03-2011 06:10:04 -2.4 C 3.61 g/m*3 -2.4 C 0 km/h
32 22-03-2011 06:22:04 -2.5 C 3.58 g/m*3 -2.5 C 0 km/h
33 22-03-2011 06:34:04 -2.1 C 3.68 g/m*3 -2.1 C 0 km/h
34 22-03-2011 06:46:04 -2 C 3.75 g/m*3 -2 C 0 km/h
35 22-03-2011 06:58:04 -2.1 C 3.73 g/m*3 -2.1 C 0 km/h
36 22-03-2011 07:10:03 -2.4 C 3.65 g/m*3 -2.4 C 0 km/h
37 22-03-2011 07:22:02 -2.2 C 3.7 g/m*3 -2.2 C 0 km/h
38 22-03-2011 07:34:02 -1.9 C 3.78 g/m*3 -1.9 C 0 km/h
39 22-03-2011 07:46:01 -2 C 3.75 g/m*3 -2 C 0 km/h
40 22-03-2011 07:58:01 -2.1 C 3.73 g/m*3 -2.1 C 0 km/h
41 22-03-2011 08:10:02 -1.5 C 3.89 g/m*3 -1.5 C 0 km/h
42 22-03-2011 08:22:01 -1 C 4.07 g/m*3 -1 C 0 km/h
43 22-03-2011 08:34:01 -0.9 C 4.1 g/m*3 -0.9 C 0 km/h
44 22-03-2011 08:46:02 -0.7 C 4.15 g/m*3 -0.7 C 0 km/h
45 22-03-2011 08:58:02 -0.6 C 4.18 g/m*3 -0.6 C 0 km/h
46 22-03-2011 09:10:01 -0.3 C 4.27 g/m*3 -0.3 C 0 km/h
47 22-03-2011 09:22:02 0.1 C 4.39 g/m*3 0.1 C 0 km/h
48 22-03-2011 09:34:01 0.5 C 4.51 g/m*3 0.5 C 0 km/h
49 22-03-2011 09:46:01 1.5 C 4.83 g/m*3 1.5 C 0 km/h
50 22-03-2011 09:58:01 2.2 C 4.96 g/m*3 2.2 C 0 km/h
Sensor: Nr:Datum:Temp:Abs-Feuchte:Windchill:Wind:
Aussen-T/F 51 22-03-2011 10:10:01 3 C 4.93 g/m*3 3 C 0 km/h
52 22-03-2011 10:22:02 3.8 C 5.02 g/m*3 3.8 C 0 km/h
53 22-03-2011 10:34:01 5 C 4.89 g/m*3 5 C 0 km/h
54 22-03-2011 10:46:03 6 C 4.65 g/m*3 6 C 0 km/h
55 22-03-2011 10:58:03 6.4 C 4.4 g/m*3 6.4 C 0 km/h
56 22-03-2011 11:10:02 6.9 C 4.46 g/m*3 6.9 C 0 km/h
57 22-03-2011 11:22:02 8 C 4.13 g/m*3 8 C 0 km/h
58 22-03-2011 11:34:02 8.6 C 4.21 g/m*3 8.6 C 0 km/h
59 22-03-2011 11:46:02 9.8 C 3.99 g/m*3 9.8 C 0 km/h
60 22-03-2011 11:58:02 10.8 C 3.95 g/m*3 10.8 C 0 km/h
61 22-03-2011 12:10:02 12.4 C 3.93 g/m*3 12.4 C 0 km/h
62 22-03-2011 12:22:02 14.5 C 3.48 g/m*3 14.5 C 0 km/h
63 22-03-2011 12:34:02 14.7 C 3.4 g/m*3 14.7 C 0 km/h
64 22-03-2011 12:46:02 17.6 C 3.15 g/m*3 17.6 C 0 km/h
65 22-03-2011 12:58:02 19.1 C 3.28 g/m*3 19.1 C 0 km/h
66 22-03-2011 13:10:02 17 C 2.89 g/m*3 17 C 0 km/h
67 22-03-2011 13:22:01 16.8 C 2.86 g/m*3 16.8 C 0 km/h
68 22-03-2011 13:34:02 16.4 C 2.79 g/m*3 16.4 C 0 km/h
69 22-03-2011 13:46:02 16.8 C 2.86 g/m*3 16.8 C 0 km/h
70 22-03-2011 13:58:02 17.5 C 2.98 g/m*3 17.5 C 0 km/h
71 22-03-2011 14:10:02 17.4 C 2.96 g/m*3 17.4 C 0 km/h
72 22-03-2011 14:22:01 17.9 C 3.05 g/m*3 17.9 C 0 km/h
73 22-03-2011 14:34:02 18 C 3.07 g/m*3 18 C 0 km/h
74 22-03-2011 14:46:02 19.7 C 3.4 g/m*3 19.7 C 0 km/h
75 22-03-2011 14:58:02 21.4 C 3.75 g/m*3 21.4 C 0 km/h
Sensor: Nr:Datum:Temp:Abs-Feuchte:Windchill:Wind:
Aussen-T/F 76 22-03-2011 15:10:03 22.6 C 4.02 g/m*3 22.6 C 0 km/h
77 22-03-2011 15:22:02 21.7 C 3.82 g/m*3 21.7 C 0 km/h
78 22-03-2011 15:34:02 21.8 C 3.84 g/m*3 21.8 C 0 km/h
79 22-03-2011 15:46:01 22.4 C 3.97 g/m*3 22.4 C 0 km/h
80 22-03-2011 15:58:01 22.8 C 4.06 g/m*3 22.8 C 0 km/h
81 22-03-2011 16:10:02 21.6 C 3.79 g/m*3 21.6 C 0 km/h
82 22-03-2011 16:22:01 22.1 C 3.9 g/m*3 22.1 C 0 km/h
83 22-03-2011 16:34:02 22.6 C 4.02 g/m*3 22.6 C 0 km/h
84 22-03-2011 16:46:02 20.9 C 3.64 g/m*3 20.9 C 0 km/h
85 22-03-2011 16:58:02 21.5 C 3.77 g/m*3 21.5 C 0 km/h
86 22-03-2011 17:10:02 19.4 C 3.34 g/m*3 19.4 C 0 km/h
87 22-03-2011 17:22:01 19.6 C 3.38 g/m*3 19.6 C 0 km/h
88 22-03-2011 17:34:02 19.6 C 3.38 g/m*3 19.6 C 0 km/h
89 22-03-2011 17:46:02 18.9 C 3.24 g/m*3 18.9 C 0 km/h
90 22-03-2011 17:58:02 17.7 C 3.02 g/m*3 17.7 C 0 km/h
91 22-03-2011 18:10:02 16.2 C 2.9 g/m*3 16.2 C 0 km/h
92 22-03-2011 18:22:01 14.7 C 2.52 g/m*3 14.7 C 0 km/h
93 22-03-2011 18:34:02 12.9 C 3.27 g/m*3 12.9 C 0 km/h
94 22-03-2011 18:46:02 11.6 C 3.43 g/m*3 11.6 C 0 km/h
95 22-03-2011 18:58:02 11 C 3.6 g/m*3 11 C 0 km/h
96 22-03-2011 19:10:02 10.2 C 3.62 g/m*3 10.2 C 0 km/h
97 22-03-2011 19:22:02 9.7 C 3.87 g/m*3 9.7 C 0 km/h
98 22-03-2011 19:34:02 9.4 C 3.98 g/m*3 9.4 C 0 km/h
99 22-03-2011 19:46:01 9.8 C 3.9 g/m*3 9.8 C 0 km/h
100 22-03-2011 19:58:01 9.3 C 4.04 g/m*3 9.3 C 0 km/h
Sensor: Nr:Datum:Temp:Abs-Feuchte:Windchill:Wind:
Aussen-T/F 101 22-03-2011 20:10:02 9.3 C 4.04 g/m*3 9.3 C 0 km/h
102 22-03-2011 20:22:01 9.5 C 4.01 g/m*3 9.5 C 0 km/h
103 22-03-2011 20:34:01 9.2 C 4.11 g/m*3 9.2 C 0 km/h
104 22-03-2011 20:46:01 9 C 4.14 g/m*3 9 C 0 km/h
105 22-03-2011 20:58:01 8.7 C 4.24 g/m*3 8.7 C 0 km/h
106 22-03-2011 21:10:02 8.4 C 4.41 g/m*3 8.4 C 0 km/h
107 22-03-2011 21:22:01 7.8 C 4.57 g/m*3 7.8 C 0 km/h
108 22-03-2011 21:34:01 7.6 C 4.67 g/m*3 7.6 C 0 km/h
109 22-03-2011 21:46:01 7 C 4.65 g/m*3 7 C 0 km/h
110 22-03-2011 21:58:01 6.7 C 4.79 g/m*3 6.7 C 0 km/h
111 22-03-2011 22:10:02 6.3 C 4.66 g/m*3 6.3 C 0 km/h
112 22-03-2011 22:22:01 6.5 C 4.95 g/m*3 6.5 C 0 km/h
113 22-03-2011 22:34:02 6 C 4.86 g/m*3 6 C 0 km/h
114 22-03-2011 22:46:02 5.6 C 4.88 g/m*3 5.6 C 0 km/h
115 22-03-2011 22:58:02 5 C 4.76 g/m*3 5 C 0 km/h
116 22-03-2011 23:10:02 4.6 C 4.83 g/m*3 4.6 C 0 km/h
117 22-03-2011 23:22:02 4.2 C 4.83 g/m*3 4.2 C 0 km/h
118 22-03-2011 23:34:02 4 C 4.83 g/m*3 4 C 0 km/h
119 22-03-2011 23:46:01 3.5 C 4.8 g/m*3 3.5 C 0 km/h
120 22-03-2011 23:58:01 3.2 C 4.7 g/m*3 3.2 C 0 km/h
121 23-03-2011 00:10:02 2.8 C 4.58 g/m*3 2.8 C 0 km/h
122 23-03-2011 00:22:02 2.5 C 4.54 g/m*3 2.5 C 0 km/h
123 23-03-2011 00:34:01 2.8 C 4.75 g/m*3 2.8 C 0 km/h
124 23-03-2011 00:46:03 2.6 C 4.69 g/m*3 2.6 C 0 km/h
125 23-03-2011 00:58:03 2.7 C 4.78 g/m*3 2.7 C 0 km/h
Sensor: Nr:Datum:Temp:Abs-Feuchte:Windchill:Wind:
Aussen-T/F 126 23-03-2011 01:10:02 2.6 C 4.8 g/m*3 2.6 C 0 km/h
127 23-03-2011 01:22:02 2.6 C 4.8 g/m*3 2.6 C 0 km/h
128 23-03-2011 01:34:02 2.1 C 4.64 g/m*3 2.1 C 0 km/h
129 23-03-2011 01:46:02 2 C 4.67 g/m*3 2 C 0 km/h
130 23-03-2011 01:58:02 1.8 C 4.66 g/m*3 1.8 C 0 km/h
131 23-03-2011 02:10:01 1.5 C 4.57 g/m*3 1.5 C 0 km/h
132 23-03-2011 02:22:02 1.6 C 4.65 g/m*3 1.6 C 0 km/h
133 23-03-2011 02:34:02 1.4 C 4.59 g/m*3 1.4 C 0 km/h
134 23-03-2011 02:47:03 2.2 C 4.9 g/m*3 2.2 C 0 km/h
135 23-03-2011 02:59:03 1.8 C 4.77 g/m*3 1.8 C 0 km/h
136 23-03-2011 03:11:02 0.9 C 4.48 g/m*3 0.9 C 0 km/h
137 23-03-2011 03:23:02 0.7 C 4.42 g/m*3 0.7 C 0 km/h
138 23-03-2011 03:35:02 0.5 C 4.36 g/m*3 0.5 C 0 km/h
139 23-03-2011 03:47:02 0.5 C 4.36 g/m*3 0.5 C 0 km/h
140 23-03-2011 03:59:02 0.3 C 4.3 g/m*3 0.3 C 0 km/h
141 23-03-2011 04:11:01 0.4 C 4.38 g/m*3 0.4 C 0 km/h
142 23-03-2011 04:23:02 0.3 C 4.35 g/m*3 0.3 C 0 km/h
143 23-03-2011 04:35:01 0.2 C 4.37 g/m*3 0.2 C 0 km/h
144 23-03-2011 04:47:02 0.1 C 4.34 g/m*3 0.1 C 0 km/h
145 23-03-2011 04:59:02 0.5 C 4.46 g/m*3 0.5 C 0 km/h
146 23-03-2011 05:11:01 0 C 4.31 g/m*3 0 C 0 km/h
147 23-03-2011 05:23:01 0.4 C 4.48 g/m*3 0.4 C 0 km/h
148 23-03-2011 05:35:02 0.2 C 4.42 g/m*3 0.2 C 0 km/h
149 23-03-2011 05:47:02 -0.1 C 4.33 g/m*3 -0.1 C 0 km/h
150 23-03-2011 05:59:02 -0.2 C 4.3 g/m*3 -0.2 C 0 km/h
Sensor: Nr:Datum:Temp:Abs-Feuchte:Windchill:Wind:
Aussen-T/F 151 23-03-2011 06:11:01 -0.2 C 4.3 g/m*3 -0.2 C 0 km/h
152 23-03-2011 06:23:02 0 C 4.41 g/m*3 0 C 0 km/h
153 23-03-2011 06:35:02 -0.1 C 4.38 g/m*3 -0.1 C 0 km/h
154 23-03-2011 06:47:01 0 C 4.41 g/m*3 0 C 0 km/h
155 23-03-2011 06:59:01 -0.2 C 4.35 g/m*3 -0.2 C 0 km/h
156 23-03-2011 07:11:02 -0.1 C 4.38 g/m*3 -0.1 C 0 km/h
157 23-03-2011 07:23:01 0.4 C 4.58 g/m*3 0.4 C 0 km/h
158 23-03-2011 07:35:02 0.6 C 4.65 g/m*3 0.6 C 0 km/h
159 23-03-2011 07:47:01 0.8 C 4.71 g/m*3 0.8 C 0 km/h
160 23-03-2011 07:59:01 1 C 4.72 g/m*3 1 C 0 km/h
161 23-03-2011 08:11:02 1.4 C 4.85 g/m*3 1.4 C 0 km/h
162 23-03-2011 08:23:02 1.7 C 4.95 g/m*3 1.7 C 0 km/h
163 23-03-2011 08:35:02 1.9 C 4.97 g/m*3 1.9 C 0 km/h
164 23-03-2011 08:47:02 2.3 C 5.1 g/m*3 2.3 C 0 km/h
165 23-03-2011 08:59:02 2.9 C 5.32 g/m*3 2.9 C 0 km/h
166 23-03-2011 09:11:02 3.1 C 5.27 g/m*3 3.1 C 0 km/h
167 23-03-2011 09:23:02 3.6 C 5.45 g/m*3 3.6 C 0 km/h
168 23-03-2011 09:35:02 4.6 C 5.76 g/m*3 4.6 C 0 km/h
169 23-03-2011 09:47:02 5.5 C 5.83 g/m*3 5.5 C 0 km/h
170 23-03-2011 09:59:02 5.9 C 5.7 g/m*3 5.9 C 0 km/h
171 23-03-2011 10:11:02 6.4 C 5.74 g/m*3 6.4 C 0 km/h
172 23-03-2011 10:23:02 7.5 C 5.52 g/m*3 7.5 C 0 km/h
173 23-03-2011 10:35:02 8.1 C 5.49 g/m*3 8.1 C 0 km/h
174 23-03-2011 10:47:02 8.6 C 5.33 g/m*3 8.6 C 0 km/h
175 23-03-2011 10:59:02 9.5 C 5.46 g/m*3 9.5 C 0 km/h
Sensor: Nr:Datum:Temp:Abs-Feuchte:Windchill:Wind:
Aussen-T/F 176 23-03-2011 11:11:03 10.1 C 5.48 g/m*3 10.1 C 0 km/h
177 23-03-2011 11:23:02 10.8 C 5.54 g/m*3 10.8 C 0 km/h
178 23-03-2011 11:35:02 11.4 C 5.44 g/m*3 11.4 C 0 km/h
179 23-03-2011 11:47:01 13 C 5.22 g/m*3 13 C 0 km/h
180 23-03-2011 11:59:01 14.2 C 5.13 g/m*3 14.2 C 0 km/h
181 23-03-2011 12:11:02 15.6 C 5.32 g/m*3 15.6 C 0 km/h
182 23-03-2011 12:23:01 15 C 4.62 g/m*3 15 C 0 km/h
183 23-03-2011 12:35:01 15.6 C 4.92 g/m*3 15.6 C 0 km/h
184 23-03-2011 12:47:02 18.3 C 5 g/m*3 18.3 C 0 km/h
185 23-03-2011 12:59:02 20.4 C 4.78 g/m*3 20.4 C 0 km/h
186 23-03-2011 13:11:02 17.9 C 4.58 g/m*3 17.9 C 0 km/h
187 23-03-2011 13:23:01 17.8 C 4.55 g/m*3 17.8 C 0 km/h
188 23-03-2011 13:35:02 17.2 C 4.54 g/m*3 17.2 C 0 km/h
189 23-03-2011 13:47:02 17.8 C 4.25 g/m*3 17.8 C 0 km/h
190 23-03-2011 13:59:02 17.9 C 4.28 g/m*3 17.9 C 0 km/h
191 23-03-2011 14:11:02 17.6 C 4.35 g/m*3 17.6 C 0 km/h
192 23-03-2011 14:23:01 18.9 C 4.37 g/m*3 18.9 C 0 km/h
193 23-03-2011 14:35:02 20.1 C 4.35 g/m*3 20.1 C 0 km/h
194 23-03-2011 14:47:02 21.3 C 4.1 g/m*3 21.3 C 0 km/h
195 23-03-2011 14:59:02 22.9 C 4.09 g/m*3 22.9 C 0 km/h
196 23-03-2011 15:11:02 20 C 3.63 g/m*3 20 C 0 km/h
197 23-03-2011 15:23:02 23.5 C 4.23 g/m*3 23.5 C 0 km/h
198 23-03-2011 15:35:02 22.5 C 3.99 g/m*3 22.5 C 0 km/h
199 23-03-2011 15:47:02 24.1 C 4.38 g/m*3 24.1 C 0 km/h
200 23-03-2011 15:59:02 22.8 C 4.06 g/m*3 22.8 C 0 km/h
Sensor: Nr:Datum:Temp:Abs-Feuchte:Windchill:Wind:
Aussen-T/F 201 23-03-2011 16:11:02 22.6 C 4.02 g/m*3 22.6 C 0 km/h
202 23-03-2011 16:23:02 21.6 C 4.36 g/m*3 21.6 C 0 km/h
203 23-03-2011 16:35:02 21.5 C 4.71 g/m*3 21.5 C 0 km/h
204 23-03-2011 16:47:01 23 C 4.11 g/m*3 23 C 0 km/h
205 23-03-2011 16:59:01 22.5 C 4.19 g/m*3 22.5 C 0 km/h
206 23-03-2011 17:11:02 20.9 C 4.37 g/m*3 20.9 C 0 km/h
207 23-03-2011 17:23:01 19.1 C 4.43 g/m*3 19.1 C 0 km/h
208 23-03-2011 17:35:01 18.4 C 5.03 g/m*3 18.4 C 0 km/h
209 23-03-2011 17:47:01 19.1 C 5.08 g/m*3 19.1 C 0 km/h
210 23-03-2011 17:59:01 18.2 C 5.28 g/m*3 18.2 C 0 km/h
211 23-03-2011 18:11:02 16.2 C 5.38 g/m*3 16.2 C 0 km/h
212 23-03-2011 18:23:02 13.8 C 5.6 g/m*3 13.8 C 0 km/h
213 23-03-2011 18:35:02 13.4 C 5.7 g/m*3 13.4 C 0 km/h
214 23-03-2011 18:47:02 12 C 5.75 g/m*3 12 C 0 km/h
215 23-03-2011 18:59:02 11.4 C 5.75 g/m*3 11.4 C 0 km/h
216 23-03-2011 19:11:02 11.1 C 5.84 g/m*3 11.1 C 0 km/h
217 23-03-2011 19:23:02 10.7 C 5.89 g/m*3 10.7 C 0 km/h
218 23-03-2011 19:35:03 10.5 C 5.92 g/m*3 10.5 C 0 km/h
219 23-03-2011 19:47:02 10.9 C 6.07 g/m*3 10.9 C 0 km/h
220 23-03-2011 19:59:03 10.4 C 5.88 g/m*3 10.4 C 0 km/h
221 23-03-2011 20:11:01 10.1 C 5.96 g/m*3 10.1 C 0 km/h
222 23-03-2011 20:23:02 9.7 C 5.99 g/m*3 9.7 C 0 km/h
223 23-03-2011 20:35:02 9.7 C 6.08 g/m*3 9.7 C 0 km/h
224 23-03-2011 20:47:02 9.2 C 5.89 g/m*3 9.2 C 0 km/h
225 23-03-2011 20:59:02 9.3 C 6.02 g/m*3 9.3 C 0 km/h
Sensor: Nr:Datum:Temp:Abs-Feuchte:Windchill:Wind:
Aussen-T/F 226 23-03-2011 21:11:03 9.1 C 6.03 g/m*3 9.1 C 0 km/h
227 23-03-2011 21:23:02 8.4 C 5.94 g/m*3 8.4 C 0 km/h
228 23-03-2011 21:35:02 7.8 C 5.96 g/m*3 7.8 C 0 km/h
229 23-03-2011 21:47:02 7.8 C 6.12 g/m*3 7.8 C 0 km/h
230 23-03-2011 21:59:02 7.3 C 5.93 g/m*3 7.3 C 0 km/h
231 23-03-2011 22:11:02 7.1 C 6.01 g/m*3 7.1 C 0 km/h
232 23-03-2011 22:23:01 6.6 C 5.96 g/m*3 6.6 C 0 km/h
233 23-03-2011 22:35:02 6 C 5.73 g/m*3 6 C 0 km/h
234 23-03-2011 22:47:02 5.7 C 5.76 g/m*3 5.7 C 0 km/h
235 23-03-2011 22:59:02 5.7 C 5.84 g/m*3 5.7 C 0 km/h
236 23-03-2011 23:11:02 5.3 C 5.75 g/m*3 5.3 C 0 km/h
237 23-03-2011 23:23:03 5.1 C 5.75 g/m*3 5.1 C 0 km/h
238 23-03-2011 23:35:02 4.9 C 5.74 g/m*3 4.9 C 0 km/h
239 23-03-2011 23:47:02 4.9 C 5.74 g/m*3 4.9 C 0 km/h
240 23-03-2011 23:59:02 4.6 C 5.62 g/m*3 4.6 C 0 km/h
241 24-03-2011 00:11:02 4.4 C 5.55 g/m*3 4.4 C 0 km/h
242 24-03-2011 00:23:02 4.5 C 5.59 g/m*3 4.5 C 0 km/h
243 24-03-2011 00:35:02 4.3 C 5.58 g/m*3 4.3 C 0 km/h
244 24-03-2011 00:47:02 4.1 C 5.5 g/m*3 4.1 C 0 km/h
245 24-03-2011 00:59:02 4 C 5.47 g/m*3 4 C 0 km/h
246 24-03-2011 01:11:02 3.5 C 5.35 g/m*3 3.5 C 0 km/h
247 24-03-2011 01:23:02 3.6 C 5.39 g/m*3 3.6 C 0 km/h
248 24-03-2011 01:35:02 3.4 C 5.37 g/m*3 3.4 C 0 km/h
249 24-03-2011 01:47:02 3.2 C 5.3 g/m*3 3.2 C 0 km/h
250 24-03-2011 01:59:02 3.3 C 5.34 g/m*3 3.3 C 0 km/h
Sensor: Nr:Datum:Temp:Abs-Feuchte:Windchill:Wind:
Aussen-T/F 251 24-03-2011 02:11:02 3.1 C 5.27 g/m*3 3.1 C 0 km/h
252 24-03-2011 02:23:02 3.1 C 5.27 g/m*3 3.1 C 0 km/h
253 24-03-2011 02:35:02 3 C 5.23 g/m*3 3 C 0 km/h
254 24-03-2011 02:47:02 2.8 C 5.22 g/m*3 2.8 C 0 km/h
255 24-03-2011 02:59:02 2.7 C 5.19 g/m*3 2.7 C 0 km/h
256 24-03-2011 03:11:01 2.6 C 5.15 g/m*3 2.6 C 0 km/h
257 24-03-2011 03:23:01 2.6 C 5.21 g/m*3 2.6 C 0 km/h
258 24-03-2011 03:35:01 2.7 C 5.24 g/m*3 2.7 C 0 km/h
259 24-03-2011 03:47:01 2.6 C 5.21 g/m*3 2.6 C 0 km/h
260 24-03-2011 03:59:01 2.3 C 5.1 g/m*3 2.3 C 0 km/h
261 24-03-2011 04:11:01 2.3 C 5.1 g/m*3 2.3 C 0 km/h
262 24-03-2011 04:23:02 2.2 C 5.07 g/m*3 2.2 C 0 km/h
263 24-03-2011 04:35:01 2.4 C 5.14 g/m*3 2.4 C 0 km/h
264 24-03-2011 04:47:02 2.3 C 5.16 g/m*3 2.3 C 0 km/h
265 24-03-2011 04:59:02 2.1 C 5.04 g/m*3 2.1 C 0 km/h
266 24-03-2011 05:11:01 2 C 5 g/m*3 2 C 0 km/h
267 24-03-2011 05:23:02 1.8 C 4.99 g/m*3 1.8 C 0 km/h
268 24-03-2011 05:35:01 1.5 C 4.89 g/m*3 1.5 C 0 km/h
269 24-03-2011 05:47:02 1.9 C 5.02 g/m*3 1.9 C 0 km/h
270 24-03-2011 05:59:02 2 C 5.06 g/m*3 2 C 0 km/h
271 24-03-2011 06:11:01 1.6 C 4.97 g/m*3 1.6 C 0 km/h
272 24-03-2011 06:23:01 1.5 C 4.94 g/m*3 1.5 C 0 km/h
273 24-03-2011 06:35:02 1.3 C 4.87 g/m*3 1.3 C 0 km/h
274 24-03-2011 06:47:01 1.3 C 4.87 g/m*3 1.3 C 0 km/h
275 24-03-2011 06:59:02 1.3 C 4.87 g/m*3 1.3 C 0 km/h
Sensor: Nr:Datum:Temp:Abs-Feuchte:Windchill:Wind:
Aussen-T/F 276 24-03-2011 07:11:01 1.2 C 4.84 g/m*3 1.2 C 0 km/h
277 24-03-2011 07:23:01 1.3 C 4.87 g/m*3 1.3 C 0 km/h
278 24-03-2011 07:35:02 1.6 C 4.97 g/m*3 1.6 C 0 km/h
279 24-03-2011 07:47:01 1.8 C 5.04 g/m*3 1.8 C 0 km/h
280 24-03-2011 07:59:01 1.9 C 5.08 g/m*3 1.9 C 0 km/h
281 24-03-2011 08:11:02 2.4 C 5.25 g/m*3 2.4 C 0 km/h
282 24-03-2011 08:23:01 2.6 C 5.32 g/m*3 2.6 C 0 km/h
283 24-03-2011 08:35:02 2.8 C 5.4 g/m*3 2.8 C 0 km/h
284 24-03-2011 08:47:02 2.8 C 5.4 g/m*3 2.8 C 0 km/h
285 24-03-2011 08:59:02 3.4 C 5.62 g/m*3 3.4 C 0 km/h
286 24-03-2011 09:11:01 4.1 C 5.82 g/m*3 4.1 C 0 km/h
287 24-03-2011 09:23:02 4.1 C 5.82 g/m*3 4.1 C 0 km/h
288 24-03-2011 09:35:01 4.1 C 5.82 g/m*3 4.1 C 0 km/h
289 24-03-2011 09:47:01 6.2 C 6.69 g/m*3 6.2 C 0 km/h
290 24-03-2011 09:59:01 6.4 C 6.78 g/m*3 6.4 C 0 km/h
291 24-03-2011 10:11:03 6.8 C 6.96 g/m*3 6.8 C 0 km/h
292 24-03-2011 10:23:01 7.1 C 6.94 g/m*3 7.1 C 0 km/h
293 24-03-2011 10:35:02 7.8 C 6.86 g/m*3 7.8 C 0 km/h
294 24-03-2011 10:47:01 8.8 C 6.35 g/m*3 8.8 C 0 km/h
295 24-03-2011 10:59:01 9.8 C 6.03 g/m*3 9.8 C 0 km/h
296 24-03-2011 11:11:01 10 C 5.83 g/m*3 10 C 0 km/h
297 24-03-2011 11:23:02 11 C 5.1 g/m*3 11 C 0 km/h
298 24-03-2011 11:35:01 12.1 C 4.83 g/m*3 12.1 C 0 km/h
299 24-03-2011 11:47:01 13.3 C 4.85 g/m*3 13.3 C 0 km/h
300 24-03-2011 11:59:01 14.1 C 4.61 g/m*3 14.1 C 0 km/h
Sensor: Nr:Datum:Temp:Abs-Feuchte:Windchill:Wind:
Aussen-T/F 301 24-03-2011 12:11:01 15.2 C 4.28 g/m*3 15.2 C 0 km/h
302 24-03-2011 12:23:02 16.4 C 3.91 g/m*3 16.4 C 0 km/h
303 24-03-2011 12:35:01 16.3 C 3.75 g/m*3 16.3 C 0 km/h
304 24-03-2011 12:47:01 18.3 C 4.07 g/m*3 18.3 C 0 km/h
305 24-03-2011 12:59:01 20.6 C 3.76 g/m*3 20.6 C 0 km/h
306 24-03-2011 13:11:02 18.8 C 3.38 g/m*3 18.8 C 0 km/h
307 24-03-2011 13:23:01 18.8 C 3.38 g/m*3 18.8 C 0 km/h
308 24-03-2011 13:35:02 18.3 C 3.28 g/m*3 18.3 C 0 km/h
309 24-03-2011 13:47:02 18.3 C 3.13 g/m*3 18.3 C 0 km/h
310 24-03-2011 13:59:02 19.7 C 3.4 g/m*3 19.7 C 0 km/h
311 24-03-2011 14:11:01 18.3 C 3.13 g/m*3 18.3 C 0 km/h
312 24-03-2011 14:23:02 19.5 C 3.36 g/m*3 19.5 C 0 km/h
313 24-03-2011 14:35:01 21.6 C 3.79 g/m*3 21.6 C 0 km/h
314 24-03-2011 14:47:02 22.9 C 4.09 g/m*3 22.9 C 0 km/h
315 24-03-2011 14:59:02 24 C 4.35 g/m*3 24 C 0 km/h
316 24-03-2011 15:11:01 24.8 C 4.55 g/m*3 24.8 C 0 km/h
317 24-03-2011 15:23:01 24.1 C 4.38 g/m*3 24.1 C 0 km/h
318 24-03-2011 15:35:01 23.9 C 4.33 g/m*3 23.9 C 0 km/h
319 24-03-2011 15:47:02 25.3 C 4.68 g/m*3 25.3 C 0 km/h
320 24-03-2011 15:59:02 24.6 C 4.5 g/m*3 24.6 C 0 km/h
321 24-03-2011 16:11:01 24 C 4.35 g/m*3 24 C 0 km/h
322 24-03-2011 16:23:01 21.9 C 3.86 g/m*3 21.9 C 0 km/h
323 24-03-2011 16:35:02 23.9 C 4.33 g/m*3 23.9 C 0 km/h
324 24-03-2011 16:47:01 23.1 C 4.13 g/m*3 23.1 C 0 km/h
325 24-03-2011 16:59:02 20.2 C 3.5 g/m*3 20.2 C 0 km/h
Sensor: Nr:Datum:Temp:Abs-Feuchte:Windchill:Wind:
Aussen-T/F 326 24-03-2011 17:11:01 21.9 C 3.86 g/m*3 21.9 C 0 km/h
327 24-03-2011 17:23:01 21.9 C 3.86 g/m*3 21.9 C 0 km/h
328 24-03-2011 17:35:02 20.7 C 3.6 g/m*3 20.7 C 0 km/h
329 24-03-2011 17:47:01 19.2 C 3.3 g/m*3 19.2 C 0 km/h
330 24-03-2011 17:59:01 16.9 C 3.6 g/m*3 16.9 C 0 km/h
331 24-03-2011 18:11:02 16.4 C 3.63 g/m*3 16.4 C 0 km/h
332 24-03-2011 18:23:01 15.6 C 3.32 g/m*3 15.6 C 0 km/h
333 24-03-2011 18:35:02 13.5 C 3.51 g/m*3 13.5 C 0 km/h
334 24-03-2011 18:47:01 12.2 C 3.67 g/m*3 12.2 C 0 km/h
335 24-03-2011 18:59:01 11.5 C 3.93 g/m*3 11.5 C 0 km/h
336 24-03-2011 19:11:01 10.5 C 4.07 g/m*3 10.5 C 0 km/h
337 24-03-2011 19:23:01 10.1 C 4.16 g/m*3 10.1 C 0 km/h
338 24-03-2011 19:35:02 10 C 3.95 g/m*3 10 C 0 km/h
339 24-03-2011 19:47:01 9.7 C 4.24 g/m*3 9.7 C 0 km/h
340 24-03-2011 19:59:01 8.9 C 4.29 g/m*3 8.9 C 0 km/h
341 24-03-2011 20:11:02 8.9 C 4.56 g/m*3 8.9 C 0 km/h
342 24-03-2011 20:23:01 8.5 C 4.44 g/m*3 8.5 C 0 km/h
343 24-03-2011 20:35:02 7.7 C 4.38 g/m*3 7.7 C 0 km/h
344 24-03-2011 20:47:02 7.5 C 4.48 g/m*3 7.5 C 0 km/h
345 24-03-2011 20:59:02 7.4 C 4.29 g/m*3 7.4 C 0 km/h
346 24-03-2011 21:11:01 6.9 C 4.31 g/m*3 6.9 C 0 km/h
347 24-03-2011 21:23:01 6.5 C 4.05 g/m*3 6.5 C 0 km/h
348 24-03-2011 21:35:01 6.2 C 3.9 g/m*3 6.2 C 0 km/h
349 24-03-2011 21:47:02 5.6 C 3.89 g/m*3 5.6 C 0 km/h
350 24-03-2011 21:59:02 5.2 C 3.92 g/m*3 5.2 C 0 km/h
Sensor: Nr:Datum:Temp:Abs-Feuchte:Windchill:Wind:
Aussen-T/F 351 24-03-2011 22:11:01 5.6 C 4.17 g/m*3 5.6 C 0 km/h
352 24-03-2011 22:23:02 4.7 C 3.93 g/m*3 4.7 C 0 km/h
353 24-03-2011 22:35:01 4.6 C 3.9 g/m*3 4.6 C 0 km/h
354 24-03-2011 22:47:02 4.3 C 3.89 g/m*3 4.3 C 0 km/h
355 24-03-2011 22:59:02 4.4 C 4.11 g/m*3 4.4 C 0 km/h
356 24-03-2011 23:11:01 4.4 C 4.05 g/m*3 4.4 C 0 km/h
357 24-03-2011 23:23:01 4.1 C 3.97 g/m*3 4.1 C 0 km/h
358 24-03-2011 23:35:01 4.2 C 3.93 g/m*3 4.2 C 0 km/h
359 24-03-2011 23:47:02 4.1 C 3.9 g/m*3 4.1 C 0 km/h
360 24-03-2011 23:59:02 3.9 C 3.92 g/m*3 3.9 C 0 km/h
361 25-03-2011 00:11:01 3.5 C 3.87 g/m*3 3.5 C 0 km/h
362 25-03-2011 00:23:01 3.7 C 4.18 g/m*3 3.7 C 0 km/h
363 25-03-2011 00:35:02 3.3 C 4 g/m*3 3.3 C 0 km/h
364 25-03-2011 00:47:01 3.3 C 4 g/m*3 3.3 C 0 km/h
365 25-03-2011 00:59:02 2.8 C 3.87 g/m*3 2.8 C 0 km/h
366 25-03-2011 01:11:01 2.5 C 3.97 g/m*3 2.5 C 0 km/h
367 25-03-2011 01:23:01 2.1 C 3.97 g/m*3 2.1 C 0 km/h
368 25-03-2011 01:35:02 1.8 C 3.95 g/m*3 1.8 C 0 km/h
369 25-03-2011 01:47:01 1.6 C 4 g/m*3 1.6 C 0 km/h
370 25-03-2011 01:59:01 1.6 C 4 g/m*3 1.6 C 0 km/h
371 25-03-2011 02:11:02 2.1 C 4.2 g/m*3 2.1 C 0 km/h
372 25-03-2011 02:23:01 2 C 4.11 g/m*3 2 C 0 km/h
373 25-03-2011 02:35:02 2.4 C 4.11 g/m*3 2.4 C 0 km/h
374 25-03-2011 02:47:01 2.2 C 4.17 g/m*3 2.2 C 0 km/h
375 25-03-2011 02:59:01 1.4 C 4 g/m*3 1.4 C 0 km/h
Sensor: Nr:Datum:Temp:Abs-Feuchte:Windchill:Wind:
Aussen-T/F 376 25-03-2011 03:11:02 1.1 C 3.97 g/m*3 1.1 C 0 km/h
377 25-03-2011 03:23:02 0.9 C 4.02 g/m*3 0.9 C 0 km/h
378 25-03-2011 03:35:01 1 C 4.05 g/m*3 1 C 0 km/h
379 25-03-2011 03:47:01 1.1 C 4.13 g/m*3 1.1 C 0 km/h
380 25-03-2011 03:59:02 1.1 C 4.18 g/m*3 1.1 C 0 km/h
381 25-03-2011 04:11:01 1.1 C 4.18 g/m*3 1.1 C 0 km/h
382 25-03-2011 04:23:01 1 C 4.15 g/m*3 1 C 0 km/h
383 25-03-2011 04:35:02 0.7 C 4.12 g/m*3 0.7 C 0 km/h
384 25-03-2011 04:47:01 0.4 C 4.08 g/m*3 0.4 C 0 km/h
385 25-03-2011 04:59:01 0.3 C 4.06 g/m*3 0.3 C 0 km/h
386 25-03-2011 05:11:02 0.3 C 4.06 g/m*3 0.3 C 0 km/h
387 25-03-2011 05:23:01 0 C 3.97 g/m*3 0 C 0 km/h
388 25-03-2011 05:35:02 0 C 4.02 g/m*3 0 C 0 km/h
389 25-03-2011 05:47:01 0.1 C 4.1 g/m*3 0.1 C 0 km/h
390 25-03-2011 05:59:01 0 C 4.07 g/m*3 0 C 0 km/h
391 25-03-2011 06:11:02 -0.1 C 4.04 g/m*3 -0.1 C 0 km/h
392 25-03-2011 06:23:01 -0.1 C 4.09 g/m*3 -0.1 C 0 km/h
393 25-03-2011 06:35:01 0.3 C 4.25 g/m*3 0.3 C 0 km/h
394 25-03-2011 06:47:01 0.1 C 4.2 g/m*3 0.1 C 0 km/h
395 25-03-2011 06:59:01 0.4 C 4.28 g/m*3 0.4 C 0 km/h
396 25-03-2011 07:11:02 0.4 C 4.28 g/m*3 0.4 C 0 km/h
397 25-03-2011 07:23:01 0.6 C 4.34 g/m*3 0.6 C 0 km/h
398 25-03-2011 07:35:01 1.1 C 4.44 g/m*3 1.1 C 0 km/h
399 25-03-2011 07:47:01 1.3 C 4.5 g/m*3 1.3 C 0 km/h
400 25-03-2011 07:59:01 1.6 C 4.54 g/m*3 1.6 C 0 km/h
Sensor: Nr:Datum:Temp:Abs-Feuchte:Windchill:Wind:
Aussen-T/F 401 25-03-2011 08:11:01 2.1 C 4.64 g/m*3 2.1 C 0 km/h
402 25-03-2011 08:23:01 3 C 4.88 g/m*3 3 C 0 km/h
403 25-03-2011 08:35:01 3.8 C 4.77 g/m*3 3.8 C 0 km/h
404 25-03-2011 08:47:01 4.3 C 4.41 g/m*3 4.3 C 0 km/h
405 25-03-2011 08:59:01 4.7 C 4.33 g/m*3 4.7 C 0 km/h
406 25-03-2011 09:11:01 5.4 C 4.33 g/m*3 5.4 C 0 km/h
407 25-03-2011 09:23:02 6.2 C 4.41 g/m*3 6.2 C 0 km/h
408 25-03-2011 09:35:01 6.5 C 4.35 g/m*3 6.5 C 0 km/h
409 25-03-2011 09:47:02 7.3 C 4.35 g/m*3 7.3 C 0 km/h
410 25-03-2011 09:59:02 7.8 C 4.33 g/m*3 7.8 C 0 km/h
411 25-03-2011 10:11:01 8.6 C 4.21 g/m*3 8.6 C 0 km/h
412 25-03-2011 10:23:02 9.2 C 4.11 g/m*3 9.2 C 0 km/h
413 25-03-2011 10:35:01 10 C 4.23 g/m*3 10 C 0 km/h
414 25-03-2011 10:47:02 10.7 C 4.13 g/m*3 10.7 C 0 km/h
415 25-03-2011 10:59:02 11.6 C 4.16 g/m*3 11.6 C 0 km/h
416 25-03-2011 11:11:01 12.1 C 4.29 g/m*3 12.1 C 0 km/h
417 25-03-2011 11:23:02 12.7 C 4.12 g/m*3 12.7 C 0 km/h
418 25-03-2011 11:35:01 13.2 C 4.13 g/m*3 13.2 C 0 km/h
419 25-03-2011 11:47:02 13.9 C 4.2 g/m*3 13.9 C 0 km/h
420 25-03-2011 11:59:02 14.8 C 4.31 g/m*3 14.8 C 0 km/h
421 25-03-2011 12:11:01 16 C 4.22 g/m*3 16 C 0 km/h
422 25-03-2011 12:23:01 17 C 3.91 g/m*3 17 C 0 km/h
423 25-03-2011 12:35:01 17.7 C 3.77 g/m*3 17.7 C 0 km/h
424 25-03-2011 12:47:02 18.9 C 3.73 g/m*3 18.9 C 0 km/h
425 25-03-2011 12:59:02 20.5 C 3.74 g/m*3 20.5 C 0 km/h
Sensor: Nr:Datum:Temp:Abs-Feuchte:Windchill:Wind:
Aussen-T/F 426 25-03-2011 13:11:01 19.7 C 3.91 g/m*3 19.7 C 0 km/h
427 25-03-2011 13:23:01 19.7 C 4.25 g/m*3 19.7 C 0 km/h
428 25-03-2011 13:35:02 19.4 C 4.17 g/m*3 19.4 C 0 km/h
429 25-03-2011 13:47:01 20.7 C 4.14 g/m*3 20.7 C 0 km/h
430 25-03-2011 13:59:01 20.7 C 4.32 g/m*3 20.7 C 0 km/h
431 25-03-2011 14:11:02 20.5 C 4.09 g/m*3 20.5 C 0 km/h
432 25-03-2011 14:23:01 20.6 C 4.3 g/m*3 20.6 C 0 km/h
433 25-03-2011 14:35:02 23.6 C 4.25 g/m*3 23.6 C 0 km/h
434 25-03-2011 14:47:01 24.5 C 4.48 g/m*3 24.5 C 0 km/h
435 25-03-2011 14:59:01 25.3 C 4.68 g/m*3 25.3 C 0 km/h
436 25-03-2011 15:11:02 24.5 C 4.48 g/m*3 24.5 C 0 km/h
437 25-03-2011 15:23:01 24.8 C 4.55 g/m*3 24.8 C 0 km/h
438 25-03-2011 15:35:02 24.8 C 4.55 g/m*3 24.8 C 0 km/h
439 25-03-2011 15:47:01 24.9 C 4.58 g/m*3 24.9 C 0 km/h
440 25-03-2011 15:59:02 23.6 C 4.25 g/m*3 23.6 C 0 km/h
441 25-03-2011 16:11:01 23.4 C 4.21 g/m*3 23.4 C 0 km/h
442 25-03-2011 16:23:01 23.8 C 4.3 g/m*3 23.8 C 0 km/h
443 25-03-2011 16:35:02 21.7 C 4.01 g/m*3 21.7 C 0 km/h
444 25-03-2011 16:47:01 21.7 C 4.2 g/m*3 21.7 C 0 km/h
445 25-03-2011 16:59:01 19.5 C 4.53 g/m*3 19.5 C 0 km/h
446 25-03-2011 17:11:02 19.5 C 4.87 g/m*3 19.5 C 0 km/h
447 25-03-2011 17:23:01 19.3 C 4.81 g/m*3 19.3 C 0 km/h
448 25-03-2011 17:35:02 19.1 C 4.92 g/m*3 19.1 C 0 km/h
449 25-03-2011 17:47:01 18.5 C 4.9 g/m*3 18.5 C 0 km/h
450 25-03-2011 17:59:01 18.3 C 5 g/m*3 18.3 C 0 km/h
Sensor: Nr:Datum:Temp:Abs-Feuchte:Windchill:Wind:
Aussen-T/F 451 25-03-2011 18:11:01 17.2 C 5.13 g/m*3 17.2 C 0 km/h
452 25-03-2011 18:23:01 16.2 C 5.1 g/m*3 16.2 C 0 km/h
453 25-03-2011 18:35:02 14.9 C 5.48 g/m*3 14.9 C 0 km/h
454 25-03-2011 18:47:01 13.4 C 5.35 g/m*3 13.4 C 0 km/h
455 25-03-2011 18:59:01 12.2 C 5.5 g/m*3 12.2 C 0 km/h
456 25-03-2011 19:11:02 12 C 5.54 g/m*3 12 C 0 km/h
457 25-03-2011 19:23:01 11.5 C 5.58 g/m*3 11.5 C 0 km/h
458 25-03-2011 19:35:02 11.4 C 5.65 g/m*3 11.4 C 0 km/h
459 25-03-2011 19:47:01 11.5 C 5.58 g/m*3 11.5 C 0 km/h
460 25-03-2011 19:59:01 11.1 C 5.64 g/m*3 11.1 C 0 km/h
461 25-03-2011 20:11:02 10.6 C 5.76 g/m*3 10.6 C 0 km/h
462 25-03-2011 20:23:01 10.4 C 5.88 g/m*3 10.4 C 0 km/h
463 25-03-2011 20:35:02 9.9 C 5.88 g/m*3 9.9 C 0 km/h
464 25-03-2011 20:47:01 9.9 C 5.88 g/m*3 9.9 C 0 km/h
465 25-03-2011 20:59:01 9.5 C 5.83 g/m*3 9.5 C 0 km/h
466 25-03-2011 21:11:02 9.2 C 5.8 g/m*3 9.2 C 0 km/h
467 25-03-2011 21:23:01 9 C 5.82 g/m*3 9 C 0 km/h
468 25-03-2011 21:35:02 9 C 5.64 g/m*3 9 C 0 km/h
469 25-03-2011 21:47:01 9.2 C 5.71 g/m*3 9.2 C 0 km/h
470 25-03-2011 21:59:01 9 C 5.64 g/m*3 9 C 0 km/h
471 25-03-2011 22:11:01 8.8 C 5.83 g/m*3 8.8 C 0 km/h
472 25-03-2011 22:23:02 8.5 C 5.72 g/m*3 8.5 C 0 km/h
473 25-03-2011 22:37:09 8.5 C 5.81 g/m*3 8.5 C 0 km/h
474 25-03-2011 22:49:09 8.4 C 5.77 g/m*3 8.4 C 0 km/h
475 25-03-2011 23:01:09 8.2 C 5.78 g/m*3 8.2 C 0 km/h
Sensor: Nr:Datum:Temp:Abs-Feuchte:Windchill:Wind:
Aussen-T/F 476 25-03-2011 23:13:09 7.7 C 5.76 g/m*3 7.7 C 0 km/h
477 25-03-2011 23:25:09 7.3 C 5.69 g/m*3 7.3 C 0 km/h
478 25-03-2011 23:37:09 7.1 C 5.77 g/m*3 7.1 C 0 km/h
479 25-03-2011 23:49:09 6.6 C 5.74 g/m*3 6.6 C 0 km/h
480 26-03-2011 00:01:09 6.6 C 5.81 g/m*3 6.6 C 0 km/h
481 26-03-2011 00:13:09 5.7 C 5.48 g/m*3 5.7 C 0 km/h
482 26-03-2011 00:25:09 5.3 C 5.48 g/m*3 5.3 C 0 km/h
483 26-03-2011 00:37:09 5.2 C 5.58 g/m*3 5.2 C 0 km/h
484 26-03-2011 00:49:10 5 C 5.57 g/m*3 5 C 0 km/h
485 26-03-2011 01:01:10 4.6 C 5.56 g/m*3 4.6 C 0 km/h
486 26-03-2011 01:13:10 4.8 C 5.7 g/m*3 4.8 C 0 km/h
487 26-03-2011 01:25:10 5.7 C 6.05 g/m*3 5.7 C 0 km/h
488 26-03-2011 01:37:10 5.7 C 5.98 g/m*3 5.7 C 0 km/h
489 26-03-2011 01:49:10 5.4 C 5.72 g/m*3 5.4 C 0 km/h
490 26-03-2011 02:01:10 4.7 C 5.53 g/m*3 4.7 C 0 km/h
491 26-03-2011 02:13:10 4.7 C 5.6 g/m*3 4.7 C 0 km/h
492 26-03-2011 02:25:10 4.8 C 5.7 g/m*3 4.8 C 0 km/h
493 26-03-2011 02:37:10 4.6 C 5.62 g/m*3 4.6 C 0 km/h
494 26-03-2011 02:49:10 4.3 C 5.51 g/m*3 4.3 C 0 km/h
495 26-03-2011 03:01:10 3.9 C 5.43 g/m*3 3.9 C 0 km/h
496 26-03-2011 03:13:10 4.1 C 5.5 g/m*3 4.1 C 0 km/h
497 26-03-2011 03:25:10 3.3 C 5.28 g/m*3 3.3 C 0 km/h
498 26-03-2011 03:37:10 3.6 C 5.45 g/m*3 3.6 C 0 km/h
499 26-03-2011 03:49:10 4.8 C 5.97 g/m*3 4.8 C 0 km/h
500 26-03-2011 04:01:10 4.5 C 5.78 g/m*3 4.5 C 0 km/h
Sensor: Nr:Datum:Temp:Abs-Feuchte:Windchill:Wind:
Aussen-T/F 501 26-03-2011 04:13:10 3.9 C 5.56 g/m*3 3.9 C 0 km/h
502 26-03-2011 04:25:10 4.2 C 5.67 g/m*3 4.2 C 0 km/h
503 26-03-2011 04:37:10 4.5 C 5.78 g/m*3 4.5 C 0 km/h
504 26-03-2011 04:49:11 5.1 C 5.95 g/m*3 5.1 C 0 km/h
505 26-03-2011 05:01:11 4.9 C 5.74 g/m*3 4.9 C 0 km/h
506 26-03-2011 05:13:11 5 C 5.64 g/m*3 5 C 0 km/h
507 26-03-2011 05:25:11 4.8 C 5.57 g/m*3 4.8 C 0 km/h
508 26-03-2011 05:37:11 4.8 C 5.57 g/m*3 4.8 C 0 km/h
509 26-03-2011 05:49:11 4.8 C 5.5 g/m*3 4.8 C 0 km/h
510 26-03-2011 06:01:11 4.8 C 5.5 g/m*3 4.8 C 0 km/h
511 26-03-2011 06:13:11 4.8 C 5.5 g/m*3 4.8 C 0 km/h
512 26-03-2011 06:25:11 4.8 C 5.5 g/m*3 4.8 C 0 km/h
513 26-03-2011 06:37:11 4.8 C 5.5 g/m*3 4.8 C 0 km/h
514 26-03-2011 06:49:11 5.1 C 5.54 g/m*3 5.1 C 0 km/h
515 26-03-2011 07:01:11 5.3 C 5.54 g/m*3 5.3 C 0 km/h
516 26-03-2011 07:13:11 5.5 C 5.55 g/m*3 5.5 C 0 km/h
517 26-03-2011 07:25:11 5.6 C 5.51 g/m*3 5.6 C 0 km/h
518 26-03-2011 07:37:11 5.8 C 5.59 g/m*3 5.8 C 0 km/h
519 26-03-2011 07:49:03 6 C 5.52 g/m*3 6 C 0 km/h
520 26-03-2011 08:01:02 5.7 C 5.48 g/m*3 5.7 C 0 km/h
521 26-03-2011 08:13:02 5.7 C 5.55 g/m*3 5.7 C 0 km/h
522 26-03-2011 08:25:03 6 C 5.59 g/m*3 6 C 0 km/h
523 26-03-2011 08:37:02 6.4 C 5.74 g/m*3 6.4 C 0 km/h
524 26-03-2011 08:49:02 7.8 C 5.96 g/m*3 7.8 C 0 km/h
525 26-03-2011 09:01:02 8.8 C 5.74 g/m*3 8.8 C 0 km/h
Sensor: Nr:Datum:Temp:Abs-Feuchte:Windchill:Wind:
Aussen-T/F 526 26-03-2011 09:13:02 9.1 C 5.41 g/m*3 9.1 C 0 km/h
527 26-03-2011 09:25:02 8.5 C 5.29 g/m*3 8.5 C 0 km/h
528 26-03-2011 09:37:02 9.3 C 5.12 g/m*3 9.3 C 0 km/h
529 26-03-2011 09:49:02 8.7 C 5.02 g/m*3 8.7 C 0 km/h
530 26-03-2011 10:01:02 9.2 C 4.91 g/m*3 9.2 C 0 km/h
531 26-03-2011 10:13:02 9 C 4.76 g/m*3 9 C 0 km/h
532 26-03-2011 10:25:02 9.2 C 4.64 g/m*3 9.2 C 0 km/h
533 26-03-2011 10:37:02 9.1 C 4.44 g/m*3 9.1 C 0 km/h
534 26-03-2011 10:49:02 9.3 C 4.22 g/m*3 9.3 C 0 km/h
535 26-03-2011 11:01:03 10 C 4.23 g/m*3 10 C 0 km/h
536 26-03-2011 11:13:03 10.1 C 3.88 g/m*3 10.1 C 0 km/h
537 26-03-2011 11:25:02 9.9 C 3.83 g/m*3 9.9 C 0 km/h
538 26-03-2011 11:37:02 11.1 C 3.83 g/m*3 11.1 C 0 km/h
539 26-03-2011 11:49:02 11.7 C 3.77 g/m*3 11.7 C 0 km/h
540 26-03-2011 12:01:02 11.8 C 3.68 g/m*3 11.8 C 0 km/h
541 26-03-2011 12:13:02 12.4 C 3.5 g/m*3 12.4 C 0 km/h
542 26-03-2011 12:25:01 11.9 C 3.39 g/m*3 11.9 C 0 km/h
543 26-03-2011 12:37:02 12 C 3.2 g/m*3 12 C 0 km/h
544 26-03-2011 12:49:02 14.7 C 3.27 g/m*3 14.7 C 0 km/h
545 26-03-2011 13:01:02 13.4 C 2.91 g/m*3 13.4 C 0 km/h
546 26-03-2011 13:13:02 13.3 C 3.23 g/m*3 13.3 C 0 km/h
547 26-03-2011 13:25:02 13.4 C 3.49 g/m*3 13.4 C 0 km/h
548 26-03-2011 13:37:02 13.4 C 3.25 g/m*3 13.4 C 0 km/h
549 26-03-2011 13:49:02 13.2 C 3.33 g/m*3 13.2 C 0 km/h
550 26-03-2011 14:01:02 13 C 3.4 g/m*3 13 C 0 km/h
Sensor: Nr:Datum:Temp:Abs-Feuchte:Windchill:Wind:
Aussen-T/F 551 26-03-2011 14:13:02 13.2 C 3.21 g/m*3 13.2 C 0 km/h
552 26-03-2011 14:25:02 14.2 C 3.17 g/m*3 14.2 C 0 km/h
553 26-03-2011 14:37:02 15.9 C 2.71 g/m*3 15.9 C 0 km/h
554 26-03-2011 14:49:01 16.6 C 2.83 g/m*3 16.6 C 0 km/h
555 26-03-2011 15:01:02 14.7 C 2.77 g/m*3 14.7 C 0 km/h
556 26-03-2011 15:13:02 15.1 C 2.71 g/m*3 15.1 C 0 km/h
557 26-03-2011 15:25:01 16.5 C 2.81 g/m*3 16.5 C 0 km/h
558 26-03-2011 15:37:01 15.7 C 3.21 g/m*3 15.7 C 0 km/h
559 26-03-2011 15:49:01 14.6 C 3.25 g/m*3 14.6 C 0 km/h
560 26-03-2011 16:01:02 13.3 C 3.23 g/m*3 13.3 C 0 km/h
561 26-03-2011 16:13:02 13 C 3.4 g/m*3 13 C 0 km/h
562 26-03-2011 16:25:01 12.7 C 3.45 g/m*3 12.7 C 0 km/h
563 26-03-2011 16:37:02 12.3 C 3.47 g/m*3 12.3 C 0 km/h
564 26-03-2011 16:49:01 12 C 3.73 g/m*3 12 C 0 km/h
565 26-03-2011 17:01:02 11.6 C 3.74 g/m*3 11.6 C 0 km/h
566 26-03-2011 17:13:02 11.5 C 3.93 g/m*3 11.5 C 0 km/h
567 26-03-2011 17:25:01 11.1 C 3.83 g/m*3 11.1 C 0 km/h
568 26-03-2011 17:37:02 10.8 C 3.95 g/m*3 10.8 C 0 km/h
569 26-03-2011 17:49:01 10.5 C 3.88 g/m*3 10.5 C 0 km/h
570 26-03-2011 18:01:02 10.3 C 3.93 g/m*3 10.3 C 0 km/h
571 26-03-2011 18:13:02 10 C 4.04 g/m*3 10 C 0 km/h
572 26-03-2011 18:25:02 9.5 C 4.01 g/m*3 9.5 C 0 km/h
573 26-03-2011 18:37:01 8.9 C 4.29 g/m*3 8.9 C 0 km/h
574 26-03-2011 18:49:01 8.3 C 4.3 g/m*3 8.3 C 0 km/h
575 26-03-2011 19:01:02 8 C 4.38 g/m*3 8 C 0 km/h
Sensor: Nr:Datum:Temp:Abs-Feuchte:Windchill:Wind:
Aussen-T/F 576 26-03-2011 19:13:02 8.1 C 4.41 g/m*3 8.1 C 0 km/h
577 26-03-2011 19:25:02 8.2 C 4.44 g/m*3 8.2 C 0 km/h
578 26-03-2011 19:37:01 7.8 C 4.49 g/m*3 7.8 C 0 km/h
579 26-03-2011 19:49:02 7.9 C 4.52 g/m*3 7.9 C 0 km/h
580 26-03-2011 20:01:01 7.2 C 4.47 g/m*3 7.2 C 0 km/h
581 26-03-2011 20:13:01 6.7 C 4.48 g/m*3 6.7 C 0 km/h
582 26-03-2011 20:25:02 6.7 C 4.56 g/m*3 6.7 C 0 km/h
583 26-03-2011 20:37:01 6.6 C 4.53 g/m*3 6.6 C 0 km/h
584 26-03-2011 20:49:02 6.5 C 4.65 g/m*3 6.5 C 0 km/h
585 26-03-2011 21:01:02 6.5 C 4.65 g/m*3 6.5 C 0 km/h
586 26-03-2011 21:13:02 6.3 C 4.66 g/m*3 6.3 C 0 km/h
587 26-03-2011 21:25:02 6.2 C 4.78 g/m*3 6.2 C 0 km/h
588 26-03-2011 21:37:02 5.9 C 4.76 g/m*3 5.9 C 0 km/h
589 26-03-2011 21:49:02 5.7 C 4.77 g/m*3 5.7 C 0 km/h
590 26-03-2011 22:01:02 5.7 C 4.77 g/m*3 5.7 C 0 km/h
591 26-03-2011 22:13:02 5.7 C 4.84 g/m*3 5.7 C 0 km/h
592 26-03-2011 22:26:02 5.4 C 4.74 g/m*3 5.4 C 0 km/h
593 26-03-2011 22:38:02 5.6 C 4.88 g/m*3 5.6 C 0 km/h
594 26-03-2011 22:50:02 5.8 C 4.94 g/m*3 5.8 C 0 km/h
595 26-03-2011 23:02:03 5.6 C 4.88 g/m*3 5.6 C 0 km/h
596 26-03-2011 23:14:03 5.5 C 4.92 g/m*3 5.5 C 0 km/h
597 26-03-2011 23:26:03 5.4 C 4.81 g/m*3 5.4 C 0 km/h
598 26-03-2011 23:38:03 5.1 C 4.79 g/m*3 5.1 C 0 km/h
599 26-03-2011 23:50:03 5 C 4.82 g/m*3 5 C 0 km/h
600 27-03-2011 00:02:03 5 C 4.89 g/m*3 5 C 0 km/h
Sensor: Nr:Datum:Temp:Abs-Feuchte:Windchill:Wind:
Aussen-T/F 601 27-03-2011 00:14:03 5.1 C 4.92 g/m*3 5.1 C 0 km/h
602 27-03-2011 00:26:03 5.1 C 4.92 g/m*3 5.1 C 0 km/h
603 27-03-2011 00:38:03 5.1 C 4.92 g/m*3 5.1 C 0 km/h
604 27-03-2011 00:50:03 5 C 4.89 g/m*3 5 C 0 km/h
605 27-03-2011 01:02:03 4.8 C 4.9 g/m*3 4.8 C 0 km/h
606 27-03-2011 01:14:03 4.8 C 4.9 g/m*3 4.8 C 0 km/h
607 27-03-2011 01:26:03 4.8 C 4.96 g/m*3 4.8 C 0 km/h
608 27-03-2011 01:38:03 5.2 C 4.96 g/m*3 5.2 C 0 km/h
609 27-03-2011 01:50:03 5.3 C 4.99 g/m*3 5.3 C 0 km/h
610 27-03-2011 02:02:03 5.2 C 4.89 g/m*3 5.2 C 0 km/h
611 27-03-2011 02:14:03 4.6 C 4.76 g/m*3 4.6 C 0 km/h
612 27-03-2011 02:26:03 4.5 C 4.86 g/m*3 4.5 C 0 km/h
613 27-03-2011 02:38:03 4.7 C 4.93 g/m*3 4.7 C 0 km/h
614 27-03-2011 02:50:03 5.1 C 4.92 g/m*3 5.1 C 0 km/h
615 27-03-2011 04:02:03 5 C 4.82 g/m*3 5 C 0 km/h
616 27-03-2011 04:14:04 5 C 4.82 g/m*3 5 C 0 km/h
617 27-03-2011 04:26:04 5 C 4.82 g/m*3 5 C 0 km/h
618 27-03-2011 04:38:04 4.8 C 4.83 g/m*3 4.8 C 0 km/h
619 27-03-2011 04:50:04 4.6 C 4.76 g/m*3 4.6 C 0 km/h
620 27-03-2011 05:02:04 4.5 C 4.8 g/m*3 4.5 C 0 km/h
621 27-03-2011 05:14:04 4.7 C 4.86 g/m*3 4.7 C 0 km/h
622 27-03-2011 05:26:04 4.8 C 4.9 g/m*3 4.8 C 0 km/h
623 27-03-2011 05:38:04 4.8 C 4.9 g/m*3 4.8 C 0 km/h
624 27-03-2011 05:50:04 4.6 C 4.83 g/m*3 4.6 C 0 km/h
625 27-03-2011 06:02:04 4.4 C 4.7 g/m*3 4.4 C 0 km/h
Sensor: Nr:Datum:Temp:Abs-Feuchte:Windchill:Wind:
Aussen-T/F 626 27-03-2011 06:14:04 4.4 C 4.77 g/m*3 4.4 C 0 km/h
627 27-03-2011 06:26:04 4.4 C 4.77 g/m*3 4.4 C 0 km/h
628 27-03-2011 06:38:04 4.4 C 4.77 g/m*3 4.4 C 0 km/h
629 27-03-2011 06:50:04 4.4 C 4.77 g/m*3 4.4 C 0 km/h
630 27-03-2011 07:02:04 4.4 C 4.77 g/m*3 4.4 C 0 km/h
631 27-03-2011 07:14:04 4 C 4.64 g/m*3 4 C 0 km/h
632 27-03-2011 07:26:04 4.2 C 4.77 g/m*3 4.2 C 0 km/h
633 27-03-2011 07:38:04 4.6 C 4.83 g/m*3 4.6 C 0 km/h
634 27-03-2011 07:50:04 4.8 C 4.9 g/m*3 4.8 C 0 km/h
635 27-03-2011 08:02:04 5.1 C 4.86 g/m*3 5.1 C 0 km/h
636 27-03-2011 08:14:05 5.2 C 4.82 g/m*3 5.2 C 0 km/h
637 27-03-2011 08:26:05 5.5 C 4.85 g/m*3 5.5 C 0 km/h
638 27-03-2011 08:38:05 5.9 C 4.76 g/m*3 5.9 C 0 km/h
639 27-03-2011 08:50:02 6.1 C 4.6 g/m*3 6.1 C 0 km/h
640 27-03-2011 09:02:01 6.5 C 4.65 g/m*3 6.5 C 0 km/h
641 27-03-2011 09:14:01 6.9 C 4.7 g/m*3 6.9 C 0 km/h
642 27-03-2011 09:26:02 7.2 C 4.55 g/m*3 7.2 C 0 km/h
643 27-03-2011 09:38:02 7.3 C 4.58 g/m*3 7.3 C 0 km/h
644 27-03-2011 09:50:02 7.9 C 4.6 g/m*3 7.9 C 0 km/h
645 27-03-2011 10:02:03 8 C 4.55 g/m*3 8 C 0 km/h
646 27-03-2011 10:14:03 8.2 C 4.35 g/m*3 8.2 C 0 km/h
647 27-03-2011 10:26:03 8 C 4.46 g/m*3 8 C 0 km/h
648 27-03-2011 10:38:03 8.8 C 4.53 g/m*3 8.8 C 0 km/h
649 27-03-2011 10:50:01 8.7 C 4.5 g/m*3 8.7 C 0 km/h
650 27-03-2011 11:02:02 9.4 C 4.52 g/m*3 9.4 C 0 km/h
Sensor: Nr:Datum:Temp:Abs-Feuchte:Windchill:Wind:
Aussen-T/F 651 27-03-2011 11:14:02 10.1 C 4.44 g/m*3 10.1 C 0 km/h
652 27-03-2011 11:26:01 10.3 C 4.41 g/m*3 10.3 C 0 km/h
653 27-03-2011 11:38:01 10.3 C 4.41 g/m*3 10.3 C 0 km/h
654 27-03-2011 11:50:01 10 C 4.32 g/m*3 10 C 0 km/h
655 27-03-2011 12:02:02 10.9 C 4.48 g/m*3 10.9 C 0 km/h
656 27-03-2011 12:14:03 11.2 C 4.26 g/m*3 11.2 C 0 km/h
657 27-03-2011 12:26:01 11.7 C 4.5 g/m*3 11.7 C 0 km/h
658 27-03-2011 12:38:02 11.2 C 4.26 g/m*3 11.2 C 0 km/h
659 27-03-2011 12:50:01 11.6 C 4.47 g/m*3 11.6 C 0 km/h
660 27-03-2011 13:02:02 12.1 C 4.5 g/m*3 12.1 C 0 km/h
661 27-03-2011 13:14:02 12.6 C 4.54 g/m*3 12.6 C 0 km/h
662 27-03-2011 13:26:02 13.7 C 4.5 g/m*3 13.7 C 0 km/h
663 27-03-2011 13:38:02 14.6 C 4.63 g/m*3 14.6 C 0 km/h
664 27-03-2011 13:50:02 17.5 C 4.62 g/m*3 17.5 C 0 km/h
665 27-03-2011 14:02:02 16.2 C 4.14 g/m*3 16.2 C 0 km/h
666 27-03-2011 14:14:02 16 C 4.36 g/m*3 16 C 0 km/h
667 27-03-2011 14:26:02 15.4 C 4.07 g/m*3 15.4 C 0 km/h
668 27-03-2011 14:38:01 15.8 C 4.17 g/m*3 15.8 C 0 km/h
669 27-03-2011 14:50:02 15.9 C 4.06 g/m*3 15.9 C 0 km/h
670 27-03-2011 15:02:01 17.7 C 3.92 g/m*3 17.7 C 0 km/h
671 27-03-2011 15:14:01 17.8 C 3.95 g/m*3 17.8 C 0 km/h
672 27-03-2011 15:26:02 18.5 C 3.96 g/m*3 18.5 C 0 km/h
673 27-03-2011 15:38:01 20.3 C 3.52 g/m*3 20.3 C 0 km/h
674 27-03-2011 15:50:02 20 C 3.46 g/m*3 20 C 0 km/h
675 27-03-2011 16:02:02 20.4 C 3.54 g/m*3 20.4 C 0 km/h
Sensor: Nr:Datum:Temp:Abs-Feuchte:Windchill:Wind:
Aussen-T/F 676 27-03-2011 16:14:02 17.9 C 3.05 g/m*3 17.9 C 0 km/h
677 27-03-2011 16:26:02 20.4 C 3.54 g/m*3 20.4 C 0 km/h
678 27-03-2011 16:38:03 21.1 C 3.69 g/m*3 21.1 C 0 km/h
679 27-03-2011 16:50:02 20 C 3.46 g/m*3 20 C 0 km/h
680 27-03-2011 17:02:02 19.8 C 3.42 g/m*3 19.8 C 0 km/h
681 27-03-2011 17:14:02 19.7 C 3.4 g/m*3 19.7 C 0 km/h
682 27-03-2011 17:26:02 18.3 C 3.13 g/m*3 18.3 C 0 km/h
683 27-03-2011 17:38:02 16 C 3.68 g/m*3 16 C 0 km/h
684 27-03-2011 17:50:02 15.2 C 3.76 g/m*3 15.2 C 0 km/h
685 27-03-2011 18:02:02 14.8 C 4.05 g/m*3 14.8 C 0 km/h
686 27-03-2011 18:14:02 15.4 C 3.94 g/m*3 15.4 C 0 km/h
687 27-03-2011 18:26:02 15.2 C 4.02 g/m*3 15.2 C 0 km/h
688 27-03-2011 18:38:02 15.8 C 4.04 g/m*3 15.8 C 0 km/h
689 27-03-2011 18:50:01 16.1 C 3.84 g/m*3 16.1 C 0 km/h
690 27-03-2011 19:02:02 15.4 C 4.07 g/m*3 15.4 C 0 km/h
691 27-03-2011 19:14:02 12.7 C 4.79 g/m*3 12.7 C 0 km/h
692 27-03-2011 19:26:01 11.4 C 4.82 g/m*3 11.4 C 0 km/h
693 27-03-2011 19:38:02 11.3 C 4.79 g/m*3 11.3 C 0 km/h
694 27-03-2011 19:50:02 11 C 4.7 g/m*3 11 C 0 km/h
695 27-03-2011 20:02:02 10.2 C 4.76 g/m*3 10.2 C 0 km/h
696 27-03-2011 20:14:02 9.3 C 4.67 g/m*3 9.3 C 0 km/h
697 27-03-2011 20:26:01 8.9 C 4.82 g/m*3 8.9 C 0 km/h
698 27-03-2011 20:38:02 8.4 C 4.75 g/m*3 8.4 C 0 km/h
699 27-03-2011 20:50:02 8.5 C 5.04 g/m*3 8.5 C 0 km/h
700 27-03-2011 21:02:02 8.2 C 5.02 g/m*3 8.2 C 0 km/h
Sensor: Nr:Datum:Temp:Abs-Feuchte:Windchill:Wind:
Aussen-T/F 701 27-03-2011 21:14:03 7.7 C 4.87 g/m*3 7.7 C 0 km/h
702 27-03-2011 21:26:02 8.3 C 5.06 g/m*3 8.3 C 0 km/h
703 27-03-2011 21:38:02 7.5 C 4.88 g/m*3 7.5 C 0 km/h
704 27-03-2011 21:50:02 7.2 C 4.95 g/m*3 7.2 C 0 km/h
705 27-03-2011 22:03:04 7.6 C 5.16 g/m*3 7.6 C 0 km/h
706 27-03-2011 22:15:04 7.8 C 5.22 g/m*3 7.8 C 0 km/h
707 27-03-2011 22:27:04 7.8 C 4.98 g/m*3 7.8 C 0 km/h
708 27-03-2011 22:39:04 8 C 4.8 g/m*3 8 C 0 km/h
709 27-03-2011 22:51:04 7.5 C 4.8 g/m*3 7.5 C 0 km/h
710 27-03-2011 23:03:04 7 C 5.04 g/m*3 7 C 0 km/h
711 27-03-2011 23:15:04 7.3 C 5.14 g/m*3 7.3 C 0 km/h
712 27-03-2011 23:27:04 7 C 5.19 g/m*3 7 C 0 km/h
713 27-03-2011 23:39:04 6.1 C 4.97 g/m*3 6.1 C 0 km/h
714 27-03-2011 23:51:04 6.1 C 5.19 g/m*3 6.1 C 0 km/h
715 28-03-2011 00:03:04 6 C 5.15 g/m*3 6 C 0 km/h
716 28-03-2011 00:15:04 5.6 C 5.02 g/m*3 5.6 C 0 km/h
717 28-03-2011 00:27:04 5.4 C 5.16 g/m*3 5.4 C 0 km/h
718 28-03-2011 00:39:04 5.4 C 5.23 g/m*3 5.4 C 0 km/h
719 28-03-2011 00:51:05 4.9 C 5.06 g/m*3 4.9 C 0 km/h
720 28-03-2011 01:03:05 4.3 C 4.86 g/m*3 4.3 C 0 km/h
721 28-03-2011 01:15:05 4 C 4.9 g/m*3 4 C 0 km/h
722 28-03-2011 01:27:05 4 C 5.02 g/m*3 4 C 0 km/h
723 28-03-2011 01:39:05 4.2 C 5.22 g/m*3 4.2 C 0 km/h
724 28-03-2011 01:51:05 3.5 C 4.98 g/m*3 3.5 C 0 km/h
725 28-03-2011 02:03:05 3.2 C 4.94 g/m*3 3.2 C 0 km/h
Sensor: Nr:Datum:Temp:Abs-Feuchte:Windchill:Wind:
Aussen-T/F 726 28-03-2011 02:15:05 2.8 C 4.87 g/m*3 2.8 C 0 km/h
727 28-03-2011 02:27:05 2.9 C 4.96 g/m*3 2.9 C 0 km/h
728 28-03-2011 02:39:05 2.6 C 4.86 g/m*3 2.6 C 0 km/h
729 28-03-2011 02:51:05 2.5 C 4.83 g/m*3 2.5 C 0 km/h
730 28-03-2011 03:03:05 2.3 C 4.82 g/m*3 2.3 C 0 km/h
731 28-03-2011 03:15:05 2.3 C 4.82 g/m*3 2.3 C 0 km/h
732 28-03-2011 03:27:05 2.1 C 4.81 g/m*3 2.1 C 0 km/h
733 28-03-2011 03:39:05 2.1 C 4.81 g/m*3 2.1 C 0 km/h
734 28-03-2011 03:51:05 1.9 C 4.8 g/m*3 1.9 C 0 km/h
735 28-03-2011 04:03:05 2.8 C 5.16 g/m*3 2.8 C 0 km/h
736 28-03-2011 04:15:05 3 C 5.23 g/m*3 3 C 0 km/h
737 28-03-2011 04:27:05 2.8 C 5.16 g/m*3 2.8 C 0 km/h
738 28-03-2011 04:39:05 2.5 C 5 g/m*3 2.5 C 0 km/h
739 28-03-2011 04:51:05 2.3 C 4.93 g/m*3 2.3 C 0 km/h
740 28-03-2011 05:03:06 2.2 C 4.9 g/m*3 2.2 C 0 km/h
741 28-03-2011 05:15:06 2.2 C 4.96 g/m*3 2.2 C 0 km/h
742 28-03-2011 05:27:06 1.9 C 4.86 g/m*3 1.9 C 0 km/h
743 28-03-2011 05:39:06 1.6 C 4.81 g/m*3 1.6 C 0 km/h
744 28-03-2011 05:51:06 1.3 C 4.72 g/m*3 1.3 C 0 km/h
745 28-03-2011 06:03:06 1.3 C 4.72 g/m*3 1.3 C 0 km/h
746 28-03-2011 06:15:06 1.1 C 4.65 g/m*3 1.1 C 0 km/h
747 28-03-2011 06:27:06 1.3 C 4.72 g/m*3 1.3 C 0 km/h
748 28-03-2011 06:39:06 1.1 C 4.65 g/m*3 1.1 C 0 km/h
749 28-03-2011 06:51:06 0.9 C 4.64 g/m*3 0.9 C 0 km/h
750 28-03-2011 07:03:03 0.8 C 4.61 g/m*3 0.8 C 0 km/h
Sensor: Nr:Datum:Temp:Abs-Feuchte:Windchill:Wind:
Aussen-T/F 751 28-03-2011 07:15:03 0.9 C 4.64 g/m*3 0.9 C 0 km/h
752 28-03-2011 07:27:03 0.7 C 4.63 g/m*3 0.7 C 0 km/h
753 28-03-2011 07:39:04 0.4 C 4.53 g/m*3 0.4 C 0 km/h
754 28-03-2011 07:51:02 0.3 C 4.5 g/m*3 0.3 C 0 km/h
755 28-03-2011 08:03:02 0.5 C 4.56 g/m*3 0.5 C 0 km/h
756 28-03-2011 08:15:02 0.8 C 4.66 g/m*3 0.8 C 0 km/h
757 28-03-2011 08:27:02 1.3 C 4.82 g/m*3 1.3 C 0 km/h
758 28-03-2011 08:39:02 1.2 C 4.79 g/m*3 1.2 C 0 km/h
759 28-03-2011 08:51:02 1.9 C 5.02 g/m*3 1.9 C 0 km/h
760 28-03-2011 09:03:02 1.9 C 5.02 g/m*3 1.9 C 0 km/h
761 28-03-2011 09:15:02 2.2 C 5.07 g/m*3 2.2 C 0 km/h
762 28-03-2011 09:27:02 2.4 C 5.14 g/m*3 2.4 C 0 km/h
763 28-03-2011 09:39:02 2.6 C 5.21 g/m*3 2.6 C 0 km/h
764 28-03-2011 09:51:02 3 C 5.29 g/m*3 3 C 0 km/h
765 28-03-2011 10:03:02 3.2 C 5.36 g/m*3 3.2 C 0 km/h
766 28-03-2011 10:15:02 4 C 5.59 g/m*3 4 C 0 km/h
767 28-03-2011 10:27:02 4.2 C 5.61 g/m*3 4.2 C 0 km/h
768 28-03-2011 10:39:02 5.3 C 5.54 g/m*3 5.3 C 0 km/h
769 28-03-2011 10:51:02 6.6 C 5.21 g/m*3 6.6 C 0 km/h
770 28-03-2011 11:03:02 7.3 C 4.82 g/m*3 7.3 C 0 km/h
771 28-03-2011 11:15:02 7.9 C 4.52 g/m*3 7.9 C 0 km/h
772 28-03-2011 11:27:03 8.5 C 4.44 g/m*3 8.5 C 0 km/h
773 28-03-2011 11:39:01 9.3 C 3.86 g/m*3 9.3 C 0 km/h
774 28-03-2011 11:51:02 10 C 3.95 g/m*3 10 C 0 km/h
775 28-03-2011 12:03:01 10.4 C 3.76 g/m*3 10.4 C 0 km/h
Sensor: Nr:Datum:Temp:Abs-Feuchte:Windchill:Wind:
Aussen-T/F 776 28-03-2011 12:15:01 11 C 3.4 g/m*3 11 C 0 km/h
777 28-03-2011 12:27:01 11 C 3.3 g/m*3 11 C 0 km/h
778 28-03-2011 12:39:02 11.8 C 3.47 g/m*3 11.8 C 0 km/h
779 28-03-2011 12:51:02 12.2 C 3.24 g/m*3 12.2 C 0 km/h
780 28-03-2011 13:03:02 12.4 C 3.17 g/m*3 12.4 C 0 km/h
781 28-03-2011 13:15:02 13.2 C 3.33 g/m*3 13.2 C 0 km/h
782 28-03-2011 13:27:02 13.7 C 2.96 g/m*3 13.7 C 0 km/h
783 28-03-2011 13:39:02 14 C 3.02 g/m*3 14 C 0 km/h
784 28-03-2011 13:51:01 16.1 C 2.74 g/m*3 16.1 C 0 km/h
785 28-03-2011 14:03:02 14.6 C 2.5 g/m*3 14.6 C 0 km/h
786 28-03-2011 14:15:01 14.9 C 2.55 g/m*3 14.9 C 0 km/h
787 28-03-2011 14:27:01 14.3 C 2.46 g/m*3 14.3 C 0 km/h
788 28-03-2011 14:39:01 14.1 C 2.43 g/m*3 14.1 C 0 km/h
789 28-03-2011 14:51:01 15 C 2.56 g/m*3 15 C 0 km/h
790 28-03-2011 15:03:02 16 C 2.72 g/m*3 16 C 0 km/h
791 28-03-2011 15:15:01 16.2 C 2.76 g/m*3 16.2 C 0 km/h
792 28-03-2011 15:27:01 16.6 C 2.83 g/m*3 16.6 C 0 km/h
793 28-03-2011 15:39:01 20.1 C 3.48 g/m*3 20.1 C 0 km/h
794 28-03-2011 15:51:01 17.2 C 2.93 g/m*3 17.2 C 0 km/h
795 28-03-2011 16:03:01 18.9 C 3.24 g/m*3 18.9 C 0 km/h
796 28-03-2011 16:15:02 19.4 C 3.34 g/m*3 19.4 C 0 km/h
797 28-03-2011 16:27:02 19.7 C 3.4 g/m*3 19.7 C 0 km/h
798 28-03-2011 16:39:01 18.3 C 3.13 g/m*3 18.3 C 0 km/h
799 28-03-2011 16:51:02 18.4 C 3.15 g/m*3 18.4 C 0 km/h
800 28-03-2011 17:03:01 16.9 C 2.88 g/m*3 16.9 C 0 km/h
Sensor: Nr:Datum:Temp:Abs-Feuchte:Windchill:Wind:
Aussen-T/F 801 28-03-2011 17:15:01 18.4 C 3.15 g/m*3 18.4 C 0 km/h
802 28-03-2011 17:27:01 19.2 C 3.3 g/m*3 19.2 C 0 km/h
803 28-03-2011 17:39:01 18.5 C 3.16 g/m*3 18.5 C 0 km/h
804 28-03-2011 17:51:02 16.7 C 2.84 g/m*3 16.7 C 0 km/h
805 28-03-2011 18:03:02 16.7 C 2.84 g/m*3 16.7 C 0 km/h
806 28-03-2011 18:15:02 17.1 C 2.91 g/m*3 17.1 C 0 km/h
807 28-03-2011 18:27:02 16.4 C 2.79 g/m*3 16.4 C 0 km/h
808 28-03-2011 18:39:02 15.5 C 2.64 g/m*3 15.5 C 0 km/h
809 28-03-2011 18:51:02 14.9 C 2.55 g/m*3 14.9 C 0 km/h
810 28-03-2011 19:03:02 14.6 C 2.5 g/m*3 14.6 C 0 km/h
811 28-03-2011 19:15:01 13.5 C 2.46 g/m*3 13.5 C 0 km/h
812 28-03-2011 19:27:01 12.8 C 2.8 g/m*3 12.8 C 0 km/h
813 28-03-2011 19:39:02 11.2 C 3.04 g/m*3 11.2 C 0 km/h
814 28-03-2011 19:51:02 9.8 C 3.34 g/m*3 9.8 C 0 km/h
815 28-03-2011 20:03:02 9.6 C 3.3 g/m*3 9.6 C 0 km/h
816 28-03-2011 20:15:02 9 C 3.26 g/m*3 9 C 0 km/h
817 28-03-2011 20:27:02 9.6 C 3.21 g/m*3 9.6 C 0 km/h
818 28-03-2011 20:39:02 9.5 C 3.09 g/m*3 9.5 C 0 km/h
819 28-03-2011 20:51:02 9.2 C 3.21 g/m*3 9.2 C 0 km/h
820 28-03-2011 21:03:02 7.8 C 3.51 g/m*3 7.8 C 0 km/h
821 28-03-2011 21:15:02 7.1 C 3.67 g/m*3 7.1 C 0 km/h
822 28-03-2011 21:27:02 6.9 C 3.77 g/m*3 6.9 C 0 km/h
823 28-03-2011 21:39:02 6.5 C 3.67 g/m*3 6.5 C 0 km/h
824 28-03-2011 21:51:02 6.2 C 3.75 g/m*3 6.2 C 0 km/h
825 28-03-2011 22:03:02 5.6 C 3.68 g/m*3 5.6 C 0 km/h
Sensor: Nr:Datum:Temp:Abs-Feuchte:Windchill:Wind:
Aussen-T/F 826 28-03-2011 22:15:02 5.8 C 3.72 g/m*3 5.8 C 0 km/h
827 28-03-2011 22:27:02 6.2 C 3.75 g/m*3 6.2 C 0 km/h
828 28-03-2011 22:39:02 5.6 C 3.82 g/m*3 5.6 C 0 km/h
829 28-03-2011 22:51:02 5.3 C 4.02 g/m*3 5.3 C 0 km/h
830 28-03-2011 23:03:01 4.7 C 3.93 g/m*3 4.7 C 0 km/h
831 28-03-2011 23:15:02 4.4 C 4.05 g/m*3 4.4 C 0 km/h
832 28-03-2011 23:27:02 3.3 C 3.88 g/m*3 3.3 C 0 km/h
833 28-03-2011 23:39:02 2.9 C 4.02 g/m*3 2.9 C 0 km/h
834 28-03-2011 23:51:02 2.3 C 3.91 g/m*3 2.3 C 0 km/h

Legende:
   Min
   Max


Maximal/Minimal-Werte vom 23.02.2003 - 29.09.2020

Sensor Min Max Avg
Temp
(Aussen-T/F)
-16.4 °C
20-12-2009  01:30:01
40.4 °C
25-07-2019  16:20:00
11.32 °C

Die Daten stammen von einer Davis Vantage Pro 2 Wetter-Station und werden unter Linux mit der Software wview2wettercgi und aufbereitet. Alle Angaben erfolgen ohne Gewähr für ihre Vollständigkeit oder Richtigkeit.
Kontakt: Rainer Krienke krienke@uni-koblenz.de . Meine Webseiten an der Uni Koblenz oder privat.
Version: $Revision: 0.78 $